Time;durP1;ratioP1;P1;durP2;ratioP2;P2;SDS_P1;SDS_P2;PMS_P1;PMS_P2;Temp;Humidity;BMP_temperature;BMP_pressure;BME280_temperature;BME280_humidity;BME280_pressure;Samples;Min_cycle;Max_cycle;Signal;HPM_P1;HPM_P2
2021/12/30 00:00:10;;;;;;;75.57;52.40;;;9.20;87.20;;;;;;4947404;29;20059;-83
2021/12/30 00:02:36;;;;;;;76.30;52.58;;;9.20;86.90;;;;;;4955135;29;20086;-84
2021/12/30 00:05:02;;;;;;;77.53;51.90;;;9.20;86.90;;;;;;4955353;29;20024;-84
2021/12/30 00:07:29;;;;;;;80.05;52.67;;;9.20;87.00;;;;;;4955600;28;20046;-84
2021/12/30 00:09:55;;;;;;;68.78;49.45;;;9.10;87.00;;;;;;4956410;29;20038;-84
2021/12/30 00:12:20;;;;;;;74.15;51.70;;;9.10;86.90;;;;;;4955475;29;20482;-84
2021/12/30 00:14:46;;;;;;;77.22;52.70;;;9.00;87.30;;;;;;4952119;28;20042;-84
2021/12/30 00:17:12;;;;;;;78.68;53.67;;;9.00;87.30;;;;;;4955111;29;20035;-84
2021/12/30 00:19:37;;;;;;;77.68;53.55;;;9.00;87.30;;;;;;4954509;29;20039;-84
2021/12/30 00:22:04;;;;;;;70.72;51.50;;;9.00;87.30;;;;;;4986416;28;20863;-84
2021/12/30 00:24:29;;;;;;;75.57;52.97;;;9.10;87.30;;;;;;4954526;29;20039;-84
2021/12/30 00:26:55;;;;;;;78.68;54.17;;;9.10;87.20;;;;;;4956287;28;20082;-84
2021/12/30 00:29:21;;;;;;;80.72;58.10;;;9.10;87.00;;;;;;4955814;28;20396;-84
2021/12/30 00:31:46;;;;;;;68.65;49.40;;;9.10;86.60;;;;;;4954262;29;20039;-84
2021/12/30 00:34:12;;;;;;;76.53;53.25;;;9.00;86.70;;;;;;4955196;29;20083;-84
2021/12/30 00:36:38;;;;;;;76.78;53.55;;;9.00;86.80;;;;;;4955334;29;20051;-84
2021/12/30 00:39:04;;;;;;;77.40;52.78;;;8.90;87.30;;;;;;4954972;29;20488;-84
2021/12/30 00:41:30;;;;;;;75.78;51.47;;;8.90;86.90;;;;;;4954483;29;20097;-84
2021/12/30 00:43:56;;;;;;;76.00;53.33;;;8.80;87.10;;;;;;4955260;29;20051;-84
2021/12/30 00:46:21;;;;;;;71.63;50.70;;;8.80;87.10;;;;;;4954857;28;20039;-84
2021/12/30 00:48:47;;;;;;;73.35;52.97;;;8.70;87.10;;;;;;4956988;28;20094;-84
2021/12/30 00:51:13;;;;;;;71.38;50.50;;;8.80;87.10;;;;;;4957215;29;20032;-84
2021/12/30 00:53:38;;;;;;;72.30;50.03;;;8.80;87.00;;;;;;4957806;29;20436;-84
2021/12/30 00:56:04;;;;;;;69.15;49.22;;;8.80;87.00;;;;;;4957382;28;20046;-84
2021/12/30 00:58:30;;;;;;;63.63;47.00;;;8.90;86.90;;;;;;4959408;28;20126;-84
2021/12/30 01:00:56;;;;;;;73.22;50.28;;;8.90;86.90;;;;;;4957981;28;20042;-83
2021/12/30 01:03:22;;;;;;;65.95;47.40;;;8.90;86.80;;;;;;4958286;28;20036;-83
2021/12/30 01:05:48;;;;;;;61.33;42.25;;;8.80;86.70;;;;;;4958885;28;20039;-83
2021/12/30 01:08:14;;;;;;;65.22;47.15;;;8.70;87.20;;;;;;4961951;29;20039;-83
2021/12/30 01:10:42;;;;;;;63.33;44.78;;;8.70;87.30;;;;;;4966876;28;20031;-82
2021/12/30 01:13:15;;;;;;;64.63;44.67;;;8.80;87.40;;;;;;4969652;28;20035;-83
2021/12/30 01:20:54;;;;;;;60.83;44.13;;;8.80;87.00;;;;;;4960977;28;20044;-82
2021/12/30 01:23:21;;;;;;;61.20;44.28;;;8.80;87.10;;;;;;4960802;28;20043;-82
2021/12/30 01:25:47;;;;;;;63.20;42.22;;;8.70;87.10;;;;;;4960358;28;20094;-82
2021/12/30 01:28:13;;;;;;;58.03;41.05;;;8.60;87.10;;;;;;4960558;28;20032;-82
2021/12/30 01:30:39;;;;;;;65.25;46.78;;;8.60;87.50;;;;;;4959171;28;20082;-82
2021/12/30 01:33:05;;;;;;;63.85;44.63;;;8.60;87.70;;;;;;4961200;28;20511;-82
2021/12/30 01:35:30;;;;;;;58.33;42.00;;;8.60;87.50;;;;;;4962498;28;20087;-82
2021/12/30 01:38:00;;;;;;;54.97;40.03;;;8.60;87.60;;;;;;4962713;28;20031;-82
2021/12/30 01:40:26;;;;;;;55.08;40.17;;;8.50;87.50;;;;;;4962772;28;20040;-81
2021/12/30 01:42:52;;;;;;;56.53;41.88;;;8.50;87.50;;;;;;4959294;29;20050;-82
2021/12/30 01:45:18;;;;;;;55.42;40.05;;;8.50;87.60;;;;;;4958038;28;20035;-82
2021/12/30 01:47:50;;;;;;;51.67;38.25;;;8.50;87.40;;;;;;4958629;28;20047;-82
2021/12/30 01:50:21;;;;;;;51.53;38.10;;;8.50;87.20;;;;;;4958024;29;20031;-82
2021/12/30 01:52:46;;;;;;;;;;;8.50;87.40;;;;;;4958588;29;20170;-82
2021/12/30 01:55:14;;;;;;;46.40;34.17;;;8.50;87.50;;;;;;4958109;29;19997;-82
2021/12/30 01:57:40;;;;;;;52.13;37.22;;;8.40;87.40;;;;;;4957577;29;20035;-82
2021/12/30 02:00:09;;;;;;;51.65;37.65;;;8.40;87.40;;;;;;4958109;29;20043;-82
2021/12/30 02:02:35;;;;;;;53.42;38.10;;;8.40;87.50;;;;;;4957813;29;20044;-83
2021/12/30 02:05:01;;;;;;;47.17;36.05;;;8.40;87.50;;;;;;4958317;28;20113;-83
2021/12/30 02:07:27;;;;;;;48.65;36.63;;;8.40;87.30;;;;;;4958423;29;20031;-82
2021/12/30 02:09:59;;;;;;;54.58;39.78;;;8.40;87.30;;;;;;4957734;28;20437;-82
2021/12/30 02:12:25;;;;;;;44.97;34.80;;;8.50;87.10;;;;;;4945996;29;20027;-82
2021/12/30 02:14:51;;;;;;;45.05;34.50;;;8.40;86.80;;;;;;4956662;28;20065;-81
2021/12/30 02:17:17;;;;;;;48.50;36.10;;;8.40;87.00;;;;;;4957327;29;20066;-82
2021/12/30 02:19:43;;;;;;;45.95;34.92;;;8.40;87.10;;;;;;4957176;28;20039;-82
2021/12/30 02:22:08;;;;;;;45.97;35.45;;;8.40;86.90;;;;;;4957559;28;20038;-82
2021/12/30 02:24:35;;;;;;;47.13;35.10;;;8.40;86.80;;;;;;4957487;29;20102;-82
2021/12/30 02:27:00;;;;;;;46.95;34.42;;;8.40;86.70;;;;;;4987654;28;20043;-81
2021/12/30 02:29:26;;;;;;;46.58;33.97;;;8.40;86.60;;;;;;4957427;28;20123;-81
2021/12/30 02:31:52;;;;;;;43.15;33.67;;;8.30;86.40;;;;;;4958457;28;20043;-83
2021/12/30 02:34:19;;;;;;;39.78;31.85;;;8.30;86.70;;;;;;4957620;29;20058;-83
2021/12/30 02:36:47;;;;;;;41.78;32.60;;;8.30;86.70;;;;;;4957721;28;20039;-84
2021/12/30 02:39:14;;;;;;;45.80;35.55;;;8.30;86.80;;;;;;4957822;28;20039;-84
2021/12/30 02:41:40;;;;;;;46.22;33.78;;;8.20;86.70;;;;;;4957483;28;20039;-85
2021/12/30 02:44:07;;;;;;;46.75;34.13;;;8.20;86.80;;;;;;4957285;28;20075;-85
2021/12/30 02:46:35;;;;;;;43.00;34.17;;;8.20;86.70;;;;;;4957178;28;20085;-84
2021/12/30 02:49:02;;;;;;;43.05;32.45;;;8.20;86.90;;;;;;4956294;28;20134;-82
2021/12/30 02:51:28;;;;;;;39.40;30.88;;;8.20;86.90;;;;;;4957453;29;20086;-82
2021/12/30 02:53:54;;;;;;;43.25;32.05;;;8.20;86.90;;;;;;4957356;28;20440;-82
2021/12/30 02:56:21;;;;;;;42.30;32.50;;;8.10;86.90;;;;;;4956547;28;20124;-82
2021/12/30 02:58:47;;;;;;;42.10;31.92;;;8.10;87.00;;;;;;4957034;28;20039;-82
2021/12/30 03:01:17;;;;;;;43.15;33.38;;;8.10;87.10;;;;;;4957403;29;20042;-82
2021/12/30 03:03:43;;;;;;;43.88;33.25;;;8.10;87.20;;;;;;4949682;29;20047;-82
2021/12/30 03:06:12;;;;;;;44.17;33.85;;;8.10;87.20;;;;;;4957850;29;20031;-83
2021/12/30 03:08:39;;;;;;;42.42;32.95;;;8.10;87.20;;;;;;4957556;28;20036;-83
2021/12/30 03:11:05;;;;;;;45.55;34.15;;;8.20;87.10;;;;;;4956199;29;20518;-83
2021/12/30 03:13:32;;;;;;;42.78;32.60;;;8.20;87.00;;;;;;4957872;28;20038;-83
2021/12/30 03:16:06;;;;;;;42.80;33.47;;;8.20;87.00;;;;;;4988159;28;20365;-82
2021/12/30 03:18:33;;;;;;;49.13;34.70;;;8.20;87.00;;;;;;4956630;29;20039;-84
2021/12/30 03:21:00;;;;;;;44.38;33.30;;;8.20;87.00;;;;;;4957243;28;20033;-83
2021/12/30 03:23:26;;;;;;;46.33;34.88;;;8.20;87.00;;;;;;4957616;28;20031;-83
2021/12/30 03:25:51;;;;;;;45.35;34.08;;;8.20;86.90;;;;;;4987928;28;20042;-83
2021/12/30 03:28:17;;;;;;;48.30;34.20;;;8.20;87.40;;;;;;4956185;28;20040;-84
2021/12/30 03:30:44;;;;;;;45.90;34.90;;;8.30;86.80;;;;;;4957579;29;20032;-84
2021/12/30 03:33:10;;;;;;;44.78;33.30;;;8.20;86.50;;;;;;4956957;28;20047;-83
2021/12/30 03:35:35;;;;;;;44.38;33.60;;;8.20;86.50;;;;;;4956262;28;20388;-84
2021/12/30 03:38:01;;;;;;;48.20;35.25;;;8.20;86.70;;;;;;4957053;29;20040;-83
2021/12/30 03:40:27;;;;;;;46.45;34.30;;;8.20;86.70;;;;;;4956093;28;20050;-84
2021/12/30 03:42:53;;;;;;;44.50;33.28;;;8.20;86.50;;;;;;4956781;29;20483;-83
2021/12/30 03:45:20;;;;;;;44.75;33.70;;;8.20;86.50;;;;;;4956907;29;20031;-84
2021/12/30 03:47:48;;;;;;;44.92;32.75;;;8.20;86.70;;;;;;4957067;29;20563;-83
2021/12/30 03:50:20;;;;;;;45.95;34.17;;;8.20;86.50;;;;;;4956814;28;20039;-82
2021/12/30 03:52:47;;;;;;;45.13;33.92;;;8.20;86.70;;;;;;4957112;28;20035;-84
2021/12/30 03:55:13;;;;;;;44.72;32.88;;;8.20;86.70;;;;;;4956330;28;20031;-83
2021/12/30 03:57:39;;;;;;;47.35;34.72;;;8.20;86.80;;;;;;4957353;28;20035;-83
2021/12/30 04:00:05;;;;;;;48.15;34.60;;;8.20;86.90;;;;;;4956416;28;20122;-82
2021/12/30 04:02:31;;;;;;;45.78;32.92;;;8.20;86.80;;;;;;4954693;28;20496;-81
2021/12/30 04:04:57;;;;;;;47.95;35.75;;;8.20;86.70;;;;;;4955322;28;20122;-81
2021/12/30 04:07:22;;;;;;;47.17;33.83;;;8.20;86.70;;;;;;4955619;29;20396;-82
2021/12/30 04:09:48;;;;;;;45.78;34.05;;;8.20;86.60;;;;;;4955749;28;20412;-82
2021/12/30 04:12:14;;;;;;;45.80;33.42;;;8.30;86.60;;;;;;4955938;29;20031;-81
2021/12/30 04:14:40;;;;;;;47.53;34.10;;;8.20;86.40;;;;;;4955387;29;20047;-81
2021/12/30 04:17:06;;;;;;;46.38;33.88;;;8.30;86.40;;;;;;4954225;28;20047;-82
2021/12/30 04:19:32;;;;;;;44.50;34.38;;;8.20;86.40;;;;;;4955177;28;20044;-81
2021/12/30 04:21:58;;;;;;;47.08;34.47;;;8.30;86.40;;;;;;4955732;29;20045;-82
2021/12/30 04:24:25;;;;;;;45.20;32.55;;;8.30;86.40;;;;;;4955455;28;20047;-81
2021/12/30 04:26:51;;;;;;;43.20;31.60;;;8.20;86.30;;;;;;4953890;28;20034;-82
2021/12/30 04:29:18;;;;;;;45.55;32.80;;;8.20;86.50;;;;;;4955134;28;20035;-81
2021/12/30 04:31:44;;;;;;;43.88;32.17;;;8.10;86.70;;;;;;4955409;29;20031;-82
2021/12/30 04:34:10;;;;;;;45.03;32.97;;;8.10;86.80;;;;;;4955195;29;20043;-81
2021/12/30 04:36:36;;;;;;;45.95;31.35;;;8.20;86.90;;;;;;4954112;29;20042;-82
2021/12/30 04:39:02;;;;;;;41.03;31.45;;;8.10;86.70;;;;;;4955178;28;20055;-81
2021/12/30 04:41:28;;;;;;;43.10;31.10;;;8.20;86.80;;;;;;4955652;29;20505;-82
2021/12/30 04:43:54;;;;;;;43.28;29.48;;;8.20;86.80;;;;;;4955693;29;20039;-81
2021/12/30 04:46:19;;;;;;;37.85;27.02;;;8.10;86.90;;;;;;4954938;28;20039;-81
2021/12/30 04:48:45;;;;;;;39.40;28.98;;;8.00;87.30;;;;;;4954473;28;20107;-82
2021/12/30 04:51:11;;;;;;;43.22;31.02;;;8.00;87.30;;;;;;4954866;28;20036;-81
2021/12/30 04:53:36;;;;;;;41.92;29.13;;;8.00;87.30;;;;;;4953547;29;20031;-81
2021/12/30 04:56:02;;;;;;;45.45;31.40;;;8.00;87.20;;;;;;4954914;29;20039;-82
2021/12/30 04:58:28;;;;;;;43.83;30.00;;;8.00;87.20;;;;;;4955172;28;20073;-82
2021/12/30 05:00:54;;;;;;;46.78;31.50;;;8.00;87.10;;;;;;4953951;29;20039;-82
2021/12/30 05:03:21;;;;;;;38.33;29.50;;;8.00;87.20;;;;;;4955628;28;20051;-82
2021/12/30 05:05:49;;;;;;;39.20;28.08;;;8.00;87.00;;;;;;4955143;28;20036;-83
2021/12/30 05:08:21;;;;;;;41.85;30.42;;;8.00;87.00;;;;;;4960307;28;20032;-82
2021/12/30 05:10:47;;;;;;;40.55;29.75;;;8.00;86.90;;;;;;4959478;29;20043;-82
2021/12/30 05:13:14;;;;;;;41.22;28.48;;;8.00;86.80;;;;;;4958769;28;20032;-82
2021/12/30 05:15:41;;;;;;;39.38;29.35;;;8.00;87.00;;;;;;4957087;28;20043;-82
2021/12/30 05:18:13;;;;;;;42.15;29.52;;;7.90;87.10;;;;;;4958493;29;20477;-81
2021/12/30 05:20:39;;;;;;;42.90;30.92;;;7.80;87.20;;;;;;4957907;28;20090;-80
2021/12/30 05:23:06;;;;;;;41.38;29.25;;;7.90;87.20;;;;;;4958009;28;20059;-81
2021/12/30 05:25:32;;;;;;;37.63;27.83;;;7.90;87.70;;;;;;4958012;28;20042;-81
2021/12/30 05:27:58;;;;;;;38.70;29.30;;;7.90;87.10;;;;;;4958228;29;20086;-81
2021/12/30 05:30:25;;;;;;;40.50;29.98;;;7.90;87.10;;;;;;4956701;28;20102;-82
2021/12/30 05:32:55;;;;;;;41.25;28.52;;;7.90;87.00;;;;;;4956918;28;20036;-82
2021/12/30 05:35:21;;;;;;;39.78;28.02;;;7.90;87.00;;;;;;4948511;28;20042;-82
2021/12/30 05:37:48;;;;;;;37.72;27.80;;;7.90;86.90;;;;;;4958169;28;20503;-81
2021/12/30 05:40:16;;;;;;;39.72;28.88;;;7.80;87.00;;;;;;4958062;28;20054;-83
2021/12/30 05:42:42;;;;;;;40.53;28.73;;;7.80;87.00;;;;;;4959158;29;20072;-83
2021/12/30 05:45:09;;;;;;;39.67;29.30;;;7.80;87.00;;;;;;4949944;29;20047;-83
2021/12/30 05:47:36;;;;;;;40.67;29.48;;;7.80;87.00;;;;;;4958556;29;20042;-82
2021/12/30 05:50:05;;;;;;;41.40;29.27;;;7.80;87.00;;;;;;4960217;28;20039;-82
2021/12/30 05:52:30;;;;;;;43.22;29.05;;;7.70;87.00;;;;;;4957814;29;20047;-82
2021/12/30 05:54:56;;;;;;;40.17;29.30;;;7.70;87.00;;;;;;4957963;29;20086;-82
2021/12/30 05:57:22;;;;;;;32.72;25.70;;;7.70;87.00;;;;;;4958070;28;20071;-84
2021/12/30 05:59:48;;;;;;;35.28;26.08;;;7.70;86.70;;;;;;4957845;28;20095;-82
2021/12/30 06:02:13;;;;;;;34.95;24.88;;;7.70;86.90;;;;;;4958472;28;20039;-84
2021/12/30 06:04:41;;;;;;;33.08;24.20;;;7.60;86.60;;;;;;4958528;29;20098;-86
2021/12/30 06:07:07;;;;;;;28.60;22.20;;;7.60;86.50;;;;;;4957207;29;20035;-78
2021/12/30 06:09:33;;;;;;;29.35;22.50;;;7.60;86.50;;;;;;4965578;28;20035;-77
2021/12/30 06:11:59;;;;;;;30.10;22.67;;;7.60;86.60;;;;;;4956117;28;20046;-77
2021/12/30 06:14:24;;;;;;;26.30;20.42;;;7.50;86.50;;;;;;4995682;28;20439;-77
2021/12/30 06:16:50;;;;;;;34.95;27.45;;;7.40;86.70;;;;;;4961580;28;20134;-77
2021/12/30 06:19:15;;;;;;;27.92;21.77;;;7.30;86.20;;;;;;4957461;28;20122;-77
2021/12/30 06:21:41;;;;;;;28.50;22.02;;;7.20;86.60;;;;;;4957189;29;20110;-78
2021/12/30 06:24:07;;;;;;;31.60;24.27;;;7.20;87.00;;;;;;4956640;28;20105;-79
2021/12/30 06:26:32;;;;;;;28.33;21.73;;;7.20;86.80;;;;;;4954955;28;20033;-79
2021/12/30 06:28:58;;;;;;;25.65;20.90;;;7.20;86.60;;;;;;4955888;28;20532;-79
2021/12/30 06:31:24;;;;;;;25.02;20.38;;;7.20;86.50;;;;;;4954913;28;20369;-80
2021/12/30 06:33:49;;;;;;;27.52;21.48;;;7.20;86.40;;;;;;4956345;28;20490;-79
2021/12/30 06:36:17;;;;;;;27.92;22.23;;;7.30;86.40;;;;;;4987944;28;20046;-79
2021/12/30 06:38:42;;;;;;;27.63;22.08;;;7.30;86.20;;;;;;4956402;28;20035;-79
2021/12/30 06:41:08;;;;;;;30.10;22.88;;;7.30;86.00;;;;;;4955574;29;20137;-79
2021/12/30 06:43:34;;;;;;;30.77;22.88;;;7.30;86.00;;;;;;4956756;29;20396;-79
2021/12/30 06:46:04;;;;;;;27.65;21.88;;;7.30;85.60;;;;;;4955142;28;20043;-79
2021/12/30 06:48:30;;;;;;;29.17;22.30;;;7.30;85.50;;;;;;4956097;28;20141;-82
2021/12/30 06:50:56;;;;;;;27.30;22.58;;;7.20;85.90;;;;;;4955760;28;20484;-79
2021/12/30 06:53:23;;;;;;;26.73;22.27;;;7.20;85.40;;;;;;4953839;28;20049;-78
2021/12/30 06:55:50;;;;;;;26.92;22.77;;;7.20;85.20;;;;;;4955913;28;20071;-79
2021/12/30 06:58:17;;;;;;;23.55;19.98;;;7.20;84.90;;;;;;4948684;29;20082;-79
2021/12/30 07:00:43;;;;;;;22.70;19.38;;;7.10;84.80;;;;;;4954705;29;20046;-79
2021/12/30 07:03:09;;;;;;;22.33;18.83;;;7.00;84.60;;;;;;4955634;28;20474;-79
2021/12/30 07:05:35;;;;;;;22.80;19.50;;;6.90;84.80;;;;;;4954723;29;20039;-80
2021/12/30 07:08:01;;;;;;;23.50;18.17;;;6.90;85.00;;;;;;4956020;28;20065;-80
2021/12/30 07:10:27;;;;;;;22.60;18.98;;;6.90;84.70;;;;;;4952274;29;20039;-80
2021/12/30 07:12:53;;;;;;;22.92;19.05;;;6.80;85.20;;;;;;4954121;28;20046;-80
2021/12/30 07:15:19;;;;;;;22.08;18.38;;;6.90;85.10;;;;;;4954355;29;20369;-78
2021/12/30 07:17:45;;;;;;;20.55;17.45;;;6.80;84.80;;;;;;4954025;28;20047;-77
2021/12/30 07:20:11;;;;;;;26.20;21.63;;;6.90;85.20;;;;;;4955532;28;20043;-78
2021/12/30 07:22:37;;;;;;;25.55;19.42;;;6.90;84.90;;;;;;4955545;28;20103;-79
2021/12/30 07:25:04;;;;;;;24.88;19.08;;;6.90;85.20;;;;;;4955218;28;20097;-80
2021/12/30 07:27:30;;;;;;;24.38;18.65;;;6.80;85.20;;;;;;4954986;28;20162;-78
2021/12/30 07:29:56;;;;;;;28.42;20.45;;;6.80;85.20;;;;;;4954191;28;20031;-78
2021/12/30 07:32:22;;;;;;;29.10;22.42;;;6.70;85.30;;;;;;4955110;28;20041;-76
2021/12/30 07:34:48;;;;;;;23.90;19.58;;;6.70;85.50;;;;;;4986508;28;20121;-77
2021/12/30 07:37:14;;;;;;;24.00;19.33;;;6.60;85.50;;;;;;4954287;29;20043;-77
2021/12/30 07:39:41;;;;;;;27.17;20.75;;;6.60;85.60;;;;;;4955242;29;20049;-79
2021/12/30 07:42:07;;;;;;;28.10;23.08;;;6.60;85.80;;;;;;4953219;29;20469;-79
2021/12/30 07:44:32;;;;;;;26.23;19.85;;;6.50;85.50;;;;;;4954115;28;20039;-78
2021/12/30 07:47:14;;;;;;;21.20;17.13;;;6.50;85.70;;;;;;4952077;28;20082;-79
2021/12/30 07:49:39;;;;;;;25.17;17.05;;;6.50;85.70;;;;;;4956110;28;20040;-79
2021/12/30 07:52:08;;;;;;;22.02;17.73;;;6.40;85.70;;;;;;4958605;28;20823;-79
2021/12/30 07:54:34;;;;;;;26.08;18.80;;;6.40;85.80;;;;;;4963358;28;20038;-80
2021/12/30 07:57:00;;;;;;;25.83;18.77;;;6.40;85.70;;;;;;4954758;28;20134;-79
2021/12/30 07:59:26;;;;;;;21.77;16.77;;;6.30;86.00;;;;;;4955240;29;20027;-79
2021/12/30 08:01:52;;;;;;;28.80;22.25;;;6.30;86.10;;;;;;4955771;29;20035;-79
2021/12/30 08:04:17;;;;;;;23.88;18.73;;;6.30;86.10;;;;;;4964607;28;20035;-78
2021/12/30 08:06:44;;;;;;;22.45;18.15;;;6.30;86.40;;;;;;4971183;28;20039;-78
2021/12/30 08:09:09;;;;;;;26.13;19.15;;;6.40;86.60;;;;;;4952352;29;20044;-77
2021/12/30 08:11:35;;;;;;;23.15;18.00;;;6.50;86.40;;;;;;4955858;28;20027;-77
2021/12/30 08:14:01;;;;;;;23.02;17.95;;;6.60;86.30;;;;;;4955635;29;20034;-77
2021/12/30 08:16:28;;;;;;;22.98;17.85;;;6.60;86.20;;;;;;4955588;28;20078;-78
2021/12/30 08:18:53;;;;;;;25.63;17.23;;;6.60;86.20;;;;;;4954978;28;20039;-78
2021/12/30 08:21:22;;;;;;;21.73;16.85;;;6.70;85.80;;;;;;4954777;29;20054;-78
2021/12/30 08:23:51;;;;;;;26.05;19.02;;;6.60;85.80;;;;;;4955183;29;20475;-79
2021/12/30 08:26:17;;;;;;;52.45;26.10;;;6.60;86.20;;;;;;4936311;29;20051;-78
2021/12/30 08:28:43;;;;;;;23.65;17.85;;;6.50;85.80;;;;;;4936351;29;20036;-79
2021/12/30 08:31:09;;;;;;;25.17;19.45;;;6.50;86.10;;;;;;4935827;29;20032;-79
2021/12/30 08:33:35;;;;;;;28.75;20.48;;;6.50;86.20;;;;;;4953543;28;20122;-78
2021/12/30 08:36:01;;;;;;;24.15;18.35;;;6.60;86.20;;;;;;4955958;28;20377;-77
2021/12/30 08:38:27;;;;;;;23.48;18.13;;;6.70;86.10;;;;;;4955010;29;20435;-78
2021/12/30 08:40:52;;;;;;;22.10;18.33;;;6.60;86.10;;;;;;4955113;29;20062;-77
2021/12/30 08:43:18;;;;;;;24.40;20.13;;;6.70;86.20;;;;;;4954766;28;20428;-77
2021/12/30 08:45:45;;;;;;;24.48;19.98;;;6.60;86.10;;;;;;4954896;29;20460;-77
2021/12/30 08:48:12;;;;;;;22.83;17.98;;;6.50;86.70;;;;;;4953048;28;20562;-77
2021/12/30 08:50:38;;;;;;;22.95;18.52;;;6.60;86.90;;;;;;4954816;29;21017;-78
2021/12/30 08:53:04;;;;;;;21.27;17.95;;;6.70;86.80;;;;;;4949788;28;20046;-79
2021/12/30 08:55:29;;;;;;;21.60;18.25;;;6.80;86.90;;;;;;4963138;28;20039;-79
2021/12/30 08:57:55;;;;;;;22.00;17.67;;;6.90;86.70;;;;;;4959888;28;20035;-79
2021/12/30 09:00:25;;;;;;;26.67;20.35;;;7.00;86.40;;;;;;4954514;28;20049;-79
2021/12/30 09:02:53;;;;;;;23.13;19.05;;;7.00;85.30;;;;;;4967524;28;20504;-79
2021/12/30 09:05:19;;;;;;;21.48;18.20;;;7.00;85.70;;;;;;4966346;28;20057;-78
2021/12/30 09:07:46;;;;;;;23.17;18.83;;;7.10;85.60;;;;;;4961433;28;20055;-78
2021/12/30 09:10:15;;;;;;;21.95;18.52;;;7.10;85.30;;;;;;4939153;29;20036;-79
2021/12/30 09:12:43;;;;;;;22.08;18.45;;;7.10;85.50;;;;;;4954415;29;20114;-79
2021/12/30 09:15:13;;;;;;;22.45;19.15;;;7.20;86.10;;;;;;4954185;28;20047;-79
2021/12/30 09:17:41;;;;;;;24.15;19.33;;;7.30;85.70;;;;;;4954257;29;20039;-78
2021/12/30 09:20:07;;;;;;;23.13;19.33;;;7.40;85.50;;;;;;4948305;29;20047;-78
2021/12/30 09:22:34;;;;;;;27.70;20.13;;;7.50;85.20;;;;;;4948925;28;20039;-77
2021/12/30 09:25:01;;;;;;;21.40;18.92;;;7.60;85.10;;;;;;4947437;28;20106;-78
2021/12/30 09:27:47;;;;;;;23.10;19.50;;;7.70;85.00;;;;;;4947710;28;20042;-79
2021/12/30 09:30:16;;;;;;;27.00;19.60;;;7.80;84.70;;;;;;4952550;28;20395;-81
2021/12/30 09:32:43;;;;;;;24.27;19.88;;;7.80;84.80;;;;;;4947022;28;21281;-79
2021/12/30 09:35:10;;;;;;;25.25;20.10;;;8.00;84.70;;;;;;4951867;28;20047;-79
2021/12/30 09:37:36;;;;;;;24.48;20.30;;;8.00;84.50;;;;;;4950740;28;20039;-78
2021/12/30 09:40:04;;;;;;;24.13;20.60;;;8.10;84.40;;;;;;4967397;28;20539;-78
2021/12/30 09:42:30;;;;;;;24.88;21.02;;;8.10;84.20;;;;;;4955494;28;20036;-79
2021/12/30 09:44:56;;;;;;;27.40;22.17;;;8.20;84.40;;;;;;4953175;29;20050;-79
2021/12/30 09:47:22;;;;;;;28.80;22.25;;;8.30;84.50;;;;;;4953194;29;20039;-78
2021/12/30 09:49:53;;;;;;;26.05;22.50;;;8.40;84.40;;;;;;4950180;28;20051;-79
2021/12/30 09:52:19;;;;;;;27.80;21.73;;;8.40;84.10;;;;;;4963782;28;20039;-79
2021/12/30 09:54:45;;;;;;;27.65;22.33;;;8.50;84.00;;;;;;4960571;28;20051;-79
2021/12/30 09:57:11;;;;;;;28.63;22.17;;;8.60;83.90;;;;;;4955293;28;20043;-79
2021/12/30 09:59:36;;;;;;;26.30;21.70;;;8.60;83.80;;;;;;4956821;29;20518;-80
2021/12/30 10:02:02;;;;;;;26.08;21.83;;;8.70;84.20;;;;;;4956043;28;20491;-79
2021/12/30 10:04:33;;;;;;;25.35;21.85;;;8.80;83.90;;;;;;4956453;28;20066;-79
2021/12/30 10:07:01;;;;;;;27.42;23.25;;;9.00;83.30;;;;;;4958677;28;20043;-91
2021/12/30 10:09:45;;;;;;;24.30;20.88;;;9.00;82.80;;;;;;4958892;28;20501;-90
2021/12/30 10:12:12;;;;;;;26.60;21.48;;;9.10;82.90;;;;;;4961024;28;20118;-90
2021/12/30 10:14:39;;;;;;;24.42;21.70;;;9.20;82.70;;;;;;4953906;28;20031;-79
2021/12/30 10:17:19;;;;;;;24.38;20.50;;;9.30;82.90;;;;;;4955489;29;20043;-78
2021/12/30 10:19:46;;;;;;;27.48;24.17;;;9.50;82.50;;;;;;4954171;28;20079;-78
2021/12/30 10:22:15;;;;;;;24.83;21.95;;;9.60;80.70;;;;;;4954249;28;20038;-79
2021/12/30 10:24:41;;;;;;;25.33;22.05;;;9.60;81.60;;;;;;4955752;28;20082;-80
2021/12/30 10:27:08;;;;;;;25.00;21.88;;;9.70;80.50;;;;;;4952457;28;20437;-79
2021/12/30 10:29:44;;;;;;;24.48;21.10;;;9.60;80.60;;;;;;4955249;28;20047;-79
2021/12/30 10:32:15;;;;;;;25.08;20.63;;;9.60;81.40;;;;;;4953939;28;20039;-79
2021/12/30 10:34:59;;;;;;;;;;;9.70;80.90;;;;;;4953293;28;20062;-80
2021/12/30 10:37:25;;;;;;;23.10;19.27;;;9.60;80.40;;;;;;4984849;28;19911;-80
2021/12/30 10:39:50;;;;;;;24.35;21.30;;;9.60;80.90;;;;;;4955219;29;20047;-80
2021/12/30 10:42:21;;;;;;;26.17;23.02;;;9.70;81.20;;;;;;4944809;28;20043;-79
2021/12/30 10:44:54;;;;;;;30.63;25.80;;;9.70;81.30;;;;;;4952299;28;20067;-79
2021/12/30 10:47:25;;;;;;;34.90;28.60;;;9.90;81.10;;;;;;4984685;28;20078;-80
2021/12/30 10:50:08;;;;;;;43.33;32.88;;;10.00;80.80;;;;;;4957186;28;20071;-79
2021/12/30 10:52:46;;;;;;;44.95;34.33;;;10.00;80.00;;;;;;4955831;28;20091;-80
2021/12/30 10:55:13;;;;;;;48.13;36.88;;;10.10;79.20;;;;;;4955130;28;20043;-79
2021/12/30 10:57:40;;;;;;;44.38;33.40;;;10.10;79.20;;;;;;4961374;28;20047;-79
2021/12/30 11:00:08;;;;;;;43.88;33.92;;;10.10;79.70;;;;;;4983890;28;20039;-78
2021/12/30 11:02:34;;;;;;;44.83;33.00;;;10.20;79.20;;;;;;4956010;28;20046;-78
2021/12/30 11:05:10;;;;;;;38.75;30.35;;;10.20;79.70;;;;;;4955740;28;20050;-77
2021/12/30 11:07:38;;;;;;;41.25;30.52;;;10.40;79.20;;;;;;4957349;28;20042;-77
2021/12/30 11:10:05;;;;;;;37.28;30.33;;;10.50;78.70;;;;;;4986331;28;20039;-76
2021/12/30 11:12:33;;;;;;;35.67;28.30;;;10.40;78.10;;;;;;4957460;28;20559;-77
2021/12/30 11:15:05;;;;;;;41.00;29.52;;;10.50;78.50;;;;;;4954609;28;20381;-78
2021/12/30 11:17:35;;;;;;;38.22;30.08;;;10.50;78.40;;;;;;4946826;28;20042;-79
2021/12/30 11:20:05;;;;;;;35.65;27.75;;;10.70;78.90;;;;;;4956436;29;20127;-79
2021/12/30 11:22:32;;;;;;;37.57;27.50;;;10.80;77.60;;;;;;4955314;28;20106;-78
2021/12/30 11:25:02;;;;;;;37.97;27.67;;;10.90;77.40;;;;;;4964038;28;20270;-79
2021/12/30 11:27:29;;;;;;;39.53;29.30;;;10.90;77.40;;;;;;4953898;29;20035;-79
2021/12/30 11:29:57;;;;;;;45.88;33.42;;;11.00;77.20;;;;;;4953486;28;20062;-79
2021/12/30 11:32:26;;;;;;;45.45;33.40;;;11.10;76.60;;;;;;4954406;28;20106;-79
2021/12/30 11:34:53;;;;;;;39.67;30.60;;;11.20;76.40;;;;;;4951859;28;20122;-79
2021/12/30 11:37:20;;;;;;;42.08;29.95;;;11.10;75.90;;;;;;4943502;28;20042;-78
2021/12/30 11:39:53;;;;;;;44.88;31.98;;;11.40;78.00;;;;;;4954071;28;20051;-79
2021/12/30 11:42:43;;;;;;;44.55;32.42;;;11.70;76.60;;;;;;4953348;28;20050;-78
2021/12/30 11:45:27;;;;;;;45.83;31.80;;;12.10;74.20;;;;;;4948408;29;20106;-78
2021/12/30 11:47:55;;;;;;;42.35;32.30;;;12.10;72.20;;;;;;4953336;28;20062;-77
2021/12/30 11:50:26;;;;;;;47.65;33.90;;;12.20;75.10;;;;;;4937588;29;20091;-78
2021/12/30 11:52:58;;;;;;;42.08;30.40;;;13.00;73.80;;;;;;4937289;28;20035;-77
2021/12/30 11:55:43;;;;;;;41.35;31.35;;;13.70;70.60;;;;;;4949413;28;20039;-80
2021/12/30 11:58:27;;;;;;;44.47;32.00;;;14.30;69.30;;;;;;4951815;29;20040;-78
2021/12/30 12:00:57;;;;;;;42.65;31.65;;;15.00;67.00;;;;;;4952949;29;20034;-77
2021/12/30 12:03:58;;;;;;;44.30;34.00;;;15.50;64.40;;;;;;4955161;28;20035;-78
2021/12/30 12:06:31;;;;;;;;;;;15.90;62.80;;;;;;4931052;28;20070;-78
2021/12/30 12:09:04;;;;;;;40.13;31.67;;;16.10;62.50;;;;;;4968800;28;20359;-78
2021/12/30 12:11:31;;;;;;;43.58;33.80;;;16.20;61.60;;;;;;4955469;29;20118;-78
2021/12/30 12:14:32;;;;;;;40.42;30.80;;;16.10;61.60;;;;;;4957307;29;20035;-76
2021/12/30 12:17:09;;;;;;;43.45;32.42;;;15.80;61.40;;;;;;4944016;28;20043;-78
2021/12/30 12:20:34;;;;;;;38.80;31.15;;;15.50;62.20;;;;;;4954801;29;20046;-80
2021/12/30 12:23:32;;;;;;;43.45;31.50;;;15.20;63.30;;;;;;4922519;29;20492;-80
2021/12/30 12:26:38;;;;;;;41.97;31.35;;;14.90;63.70;;;;;;4953597;28;20074;-81
2021/12/30 12:29:42;;;;;;;42.13;32.60;;;14.40;64.80;;;;;;4923486;28;21274;-80
2021/12/30 12:32:32;;;;;;;34.13;28.33;;;14.10;65.70;;;;;;4936599;29;20039;-80
2021/12/30 12:35:17;;;;;;;36.90;28.98;;;13.70;66.60;;;;;;4940342;28;20042;-81
2021/12/30 12:37:45;;;;;;;38.00;29.80;;;13.30;68.10;;;;;;4948359;29;20113;-80
2021/12/30 12:40:16;;;;;;;34.17;27.42;;;13.10;69.00;;;;;;4956813;28;20042;-79
2021/12/30 12:42:48;;;;;;;37.28;29.80;;;12.90;69.90;;;;;;4958900;28;20051;-80
2021/12/30 12:45:21;;;;;;;35.22;27.63;;;12.80;70.40;;;;;;4954229;29;20090;-80